Terminal Aerodrome Forecast
Issued by NWS Charleston, WV

Current Version | Previous Version | Graphics & Text | Print | Product List | Glossary On
Versions: 1 2 3 4 5 6 7 8 9 10 11 12 13 14 15 16 17 18 19 20 21 22 23 24 25 26 27 28 29 30
000
FTUS41 KRLX 201731 AAA
TAFBKW
TAF AMD
KBKW 201731Z 2018/2118 32008KT P6SM SCT150
     FM210900 01002KT 5SM -SHRA BR OVC030
     FM211100 02003KT 2SM -SHRA BR OVC010
     FM211300 32003KT 2SM -SHRA BR OVC008
     FM211500 34005KT P6SM BKN015=

USA.gov is the U.S. government's official web portal to all federal, state and local government web resources and services.